createdAt,value
2017-03-13T00:00:03.075Z,75.31
2017-03-13T00:00:07.575Z,75.12
2017-03-13T00:00:12.166Z,75.21
2017-03-13T00:00:16.821Z,75.21
2017-03-13T00:00:21.350Z,75.21
2017-03-13T00:00:25.851Z,75.21
2017-03-13T00:00:30.521Z,75.31
2017-03-13T00:00:35.063Z,75.21
2017-03-13T00:00:39.719Z,75.12
2017-03-13T00:00:44.386Z,75.31
2017-03-13T00:00:48.756Z,75.12
2017-03-13T00:00:53.428Z,75.21
2017-03-13T00:00:58.148Z,75.49
2017-03-13T00:01:02.823Z,75.4
2017-03-13T00:01:07.497Z,75.4
2017-03-13T00:01:11.987Z,75.59
2017-03-13T00:01:16.662Z,75.87
2017-03-13T00:01:21.030Z,75.78
2017-03-13T00:01:25.681Z,75.78
2017-03-13T00:01:30.346Z,75.59
2017-03-13T00:01:34.852Z,75.87
2017-03-13T00:01:39.523Z,75.68
2017-03-13T00:01:44.187Z,75.68
2017-03-13T00:01:48.892Z,75.96
2017-03-13T00:01:53.554Z,75.87
2017-03-13T00:01:58.226Z,75.59
2017-03-13T00:02:02.619Z,75.68
2017-03-13T00:02:07.303Z,75.59
2017-03-13T00:02:11.956Z,75.78
2017-03-13T00:02:16.609Z,75.68
2017-03-13T00:02:21.283Z,75.59
2017-03-13T00:02:25.795Z,75.59
2017-03-13T00:02:30.488Z,75.87
2017-03-13T00:02:35.150Z,75.78
2017-03-13T00:02:39.803Z,75.68
2017-03-13T00:02:44.450Z,75.96
2017-03-13T00:02:49.110Z,75.78
2017-03-13T00:02:53.808Z,75.87
2017-03-13T00:02:58.445Z,75.87
2017-03-13T00:03:03.014Z,75.78
2017-03-13T00:03:07.540Z,75.78
2017-03-13T00:03:12.041Z,75.78
2017-03-13T00:03:16.599Z,75.68
2017-03-13T00:03:20.971Z,75.96
2017-03-13T00:03:25.187Z,75.78
2017-03-13T00:03:29.679Z,75.68
2017-03-13T00:03:34.383Z,75.59
2017-03-13T00:03:39.045Z,75.49
2017-03-13T00:03:43.579Z,75.49
2017-03-13T00:03:48.080Z,75.78
2017-03-13T00:03:52.587Z,76.06
2017-03-13T00:03:57.266Z,75.78
2017-03-13T00:04:01.770Z,75.49
2017-03-13T00:04:06.135Z,75.78
2017-03-13T00:04:10.824Z,76.15
2017-03-13T00:04:15.487Z,76.15
2017-03-13T00:04:20.138Z,76.06
2017-03-13T00:04:24.793Z,76.15
2017-03-13T00:04:29.289Z,75.96
2017-03-13T00:04:33.945Z,75.78
2017-03-13T00:04:38.624Z,76.15
2017-03-13T00:04:43.285Z,75.96
2017-03-13T00:04:47.972Z,75.96
2017-03-13T00:04:52.479Z,76.15
2017-03-13T00:04:57.130Z,75.87
2017-03-13T00:05:02.100Z,75.68
2017-03-13T00:05:06.603Z,75.68
2017-03-13T00:05:11.112Z,76.25
2017-03-13T00:05:15.775Z,76.63
2017-03-13T00:05:20.436Z,76.25
2017-03-13T00:05:24.834Z,76.34
2017-03-13T00:05:29.338Z,76.25
2017-03-13T00:05:34.023Z,76.34
2017-03-13T00:05:38.694Z,76.15
2017-03-13T00:05:43.224Z,76.44
2017-03-13T00:05:47.883Z,76.34
2017-03-13T00:05:52.525Z,76.44
2017-03-13T00:05:57.188Z,76.44
2017-03-13T00:06:01.873Z,76.34
2017-03-13T00:06:06.522Z,76.15
2017-03-13T00:06:11.009Z,76.25
2017-03-13T00:06:15.533Z,76.25
2017-03-13T00:06:20.214Z,76.15
2017-03-13T00:06:24.889Z,76.44
2017-03-13T00:06:29.381Z,76.44
2017-03-13T00:06:34.044Z,76.25
2017-03-13T00:06:38.732Z,76.34
2017-03-13T00:06:43.382Z,76.25
2017-03-13T00:06:48.046Z,76.34
2017-03-13T00:06:52.552Z,76.63
2017-03-13T00:06:57.241Z,76.53
2017-03-13T00:07:01.891Z,76.44
2017-03-13T00:07:06.404Z,75.96
2017-03-13T00:07:10.950Z,76.34
2017-03-13T00:07:15.329Z,76.15
2017-03-13T00:07:19.574Z,76.25
2017-03-13T00:07:24.099Z,76.25
2017-03-13T00:07:28.598Z,76.15
2017-03-13T00:07:33.243Z,76.53
2017-03-13T00:07:37.965Z,76.63
2017-03-13T00:07:42.603Z,75.96
2017-03-13T00:07:47.113Z,76.53
2017-03-13T00:07:51.816Z,76.15
2017-03-13T00:07:56.333Z,76.34
2017-03-13T00:08:00.974Z,76.06
2017-03-13T00:08:05.350Z,75.96
2017-03-13T00:08:09.878Z,76.34
2017-03-13T00:08:14.415Z,76.44
2017-03-13T00:08:18.969Z,76.34
2017-03-13T00:08:23.505Z,76.44
2017-03-13T00:08:27.888Z,76.53
2017-03-13T00:08:32.456Z,76.44
2017-03-13T00:08:37.001Z,76.44
2017-03-13T00:08:41.659Z,76.44
2017-03-13T00:08:46.300Z,76.06
2017-03-13T00:08:50.978Z,76.15
2017-03-13T00:08:55.490Z,75.96
2017-03-13T00:09:00.163Z,76.34
2017-03-13T00:09:04.720Z,76.34
2017-03-13T00:09:09.389Z,76.34
2017-03-13T00:09:14.079Z,76.06
2017-03-13T00:09:18.762Z,76.34
2017-03-13T00:09:23.398Z,76.44
2017-03-13T00:09:27.776Z,76.34
2017-03-13T00:09:32.292Z,76.34
2017-03-13T00:09:36.648Z,76.34
2017-03-13T00:09:41.312Z,76.63
2017-03-13T00:09:45.830Z,76.06
2017-03-13T00:09:50.497Z,76.34
2017-03-13T00:09:55.018Z,76.44
2017-03-13T00:09:59.676Z,75.96
2017-03-13T00:10:04.027Z,76.34
2017-03-13T00:10:08.544Z,76.34
2017-03-13T00:10:13.196Z,76.44
2017-03-13T00:10:17.864Z,76.53
2017-03-13T00:10:22.378Z,76.34
2017-03-13T00:10:26.889Z,76.25
2017-03-13T00:10:31.565Z,76.34
2017-03-13T00:10:36.070Z,76.44
2017-03-13T00:10:40.719Z,76.44
2017-03-13T00:10:45.214Z,76.44
2017-03-13T00:10:49.745Z,76.34
2017-03-13T00:10:54.379Z,76.34
2017-03-13T00:10:59.061Z,76.34
2017-03-13T00:11:03.565Z,76.44
2017-03-13T00:11:08.111Z,76.34
2017-03-13T00:11:12.765Z,76.34
2017-03-13T00:11:17.436Z,76.34
2017-03-13T00:11:21.975Z,76.34
2017-03-13T00:11:26.618Z,76.34
2017-03-13T00:11:31.140Z,76.34
2017-03-13T00:11:35.797Z,76.25
2017-03-13T00:11:40.442Z,76.25
2017-03-13T00:11:45.011Z,76.25
2017-03-13T00:11:49.663Z,76.34
2017-03-13T00:11:54.190Z,76.34
2017-03-13T00:11:58.730Z,76.44
2017-03-13T00:12:03.259Z,76.25
2017-03-13T00:12:07.468Z,76.25
2017-03-13T00:12:12.121Z,76.25
2017-03-13T00:12:16.834Z,76.44
2017-03-13T00:12:21.500Z,76.25
2017-03-13T00:12:26.009Z,76.25
2017-03-13T00:12:30.677Z,76.34
2017-03-13T00:12:35.345Z,76.63
2017-03-13T00:12:39.866Z,77.1
2017-03-13T00:12:44.523Z,76.91
2017-03-13T00:12:49.189Z,77.1
2017-03-13T00:12:53.697Z,76.91
2017-03-13T00:12:58.351Z,76.91
2017-03-13T00:13:03.093Z,76.91
2017-03-13T00:13:07.760Z,76.82
2017-03-13T00:13:12.323Z,77.39
2017-03-13T00:13:16.854Z,76.72
2017-03-13T00:13:21.495Z,77.39
2017-03-13T00:13:26.173Z,77.39
2017-03-13T00:13:30.712Z,77.39
2017-03-13T00:13:35.216Z,77.39
2017-03-13T00:13:39.892Z,77.01
2017-03-13T00:13:44.576Z,77.1
2017-03-13T00:13:49.249Z,77.29
2017-03-13T00:13:53.915Z,76.91
2017-03-13T00:13:58.588Z,77.29
2017-03-13T00:14:03.250Z,77.1
2017-03-13T00:14:07.751Z,77.1
2017-03-13T00:14:12.410Z,77.1
2017-03-13T00:14:17.094Z,77.1
2017-03-13T00:14:21.606Z,77.2
2017-03-13T00:14:26.117Z,77.1
2017-03-13T00:14:30.612Z,77.2
2017-03-13T00:14:35.279Z,77.1
2017-03-13T00:14:39.997Z,77.39
2017-03-13T00:14:44.650Z,77.1
2017-03-13T00:14:49.017Z,77.2
2017-03-13T00:14:53.522Z,77.29
2017-03-13T00:14:58.060Z,77.01
2017-03-13T00:15:02.715Z,77.48
2017-03-13T00:15:07.251Z,77.48
2017-03-13T00:15:11.767Z,77.29
2017-03-13T00:15:16.433Z,77.48
2017-03-13T00:15:21.095Z,77.29
2017-03-13T00:15:25.742Z,77.2
2017-03-13T00:15:30.400Z,77.39
2017-03-13T00:15:34.959Z,77.2
2017-03-13T00:15:39.478Z,78.14
2017-03-13T00:15:43.985Z,77.86
2017-03-13T00:15:48.339Z,78.23
2017-03-13T00:15:53.017Z,78.33
2017-03-13T00:15:57.678Z,78.05
2017-03-13T00:16:02.364Z,78.23
2017-03-13T00:16:06.715Z,78.33
2017-03-13T00:16:11.090Z,78.33
2017-03-13T00:16:15.767Z,78.14
2017-03-13T00:16:20.290Z,78.33
2017-03-13T00:16:24.715Z,78.05
2017-03-13T00:16:29.370Z,78.33
2017-03-13T00:16:34.033Z,78.23
2017-03-13T00:16:38.570Z,78.42
2017-03-13T00:16:43.087Z,78.23
2017-03-13T00:16:47.751Z,78.23
2017-03-13T00:16:52.426Z,78.42
2017-03-13T00:16:56.784Z,78.14
2017-03-13T00:17:01.471Z,78.33
2017-03-13T00:17:05.844Z,78.42
2017-03-13T00:17:10.539Z,78.42
2017-03-13T00:17:15.194Z,78.33
2017-03-13T00:17:19.865Z,77.95
2017-03-13T00:17:24.390Z,78.05
2017-03-13T00:17:28.900Z,77.58
2017-03-13T00:17:33.580Z,77.76
2017-03-13T00:17:37.958Z,77.86
2017-03-13T00:17:42.608Z,77.67
2017-03-13T00:17:47.261Z,77.58
2017-03-13T00:17:51.938Z,77.76
2017-03-13T00:17:56.618Z,77.76
2017-03-13T00:18:01.282Z,77.76
2017-03-13T00:18:05.816Z,77.86
2017-03-13T00:18:10.223Z,77.58
2017-03-13T00:18:14.770Z,78.33
2017-03-13T00:18:19.451Z,78.14
2017-03-13T00:18:24.122Z,78.23
2017-03-13T00:18:28.655Z,78.23
2017-03-13T00:18:33.178Z,78.42
2017-03-13T00:18:37.827Z,78.23
2017-03-13T00:18:42.377Z,78.42
2017-03-13T00:18:47.025Z,78.52
2017-03-13T00:18:51.690Z,78.33
2017-03-13T00:18:56.346Z,78.99
2017-03-13T00:19:00.992Z,78.71
2017-03-13T00:19:05.752Z,78.61
2017-03-13T00:19:10.260Z,78.23
2017-03-13T00:19:14.764Z,78.99
2017-03-13T00:19:19.151Z,78.8
2017-03-13T00:19:23.817Z,78.33
2017-03-13T00:19:28.514Z,78.33
2017-03-13T00:19:33.185Z,78.8
2017-03-13T00:19:37.710Z,78.52
2017-03-13T00:19:42.363Z,78.71
2017-03-13T00:19:47.025Z,78.52
2017-03-13T00:19:51.670Z,78.52
2017-03-13T00:19:56.316Z,78.8
2017-03-13T00:20:00.975Z,78.52
2017-03-13T00:20:05.623Z,78.42
2017-03-13T00:20:09.983Z,78.71
2017-03-13T00:20:14.649Z,78.33
2017-03-13T00:20:19.353Z,78.9
2017-03-13T00:20:23.878Z,78.23
2017-03-13T00:20:28.383Z,78.42
2017-03-13T00:20:32.914Z,78.33
2017-03-13T00:20:37.572Z,78.14
2017-03-13T00:20:42.283Z,78.71
2017-03-13T00:20:46.918Z,78.33
2017-03-13T00:20:51.570Z,78.52
2017-03-13T00:20:56.246Z,78.23
2017-03-13T00:21:00.942Z,78.61
2017-03-13T00:21:05.536Z,78.61
2017-03-13T00:21:10.222Z,78.23
2017-03-13T00:21:14.762Z,78.61
2017-03-13T00:21:19.455Z,78.61
2017-03-13T00:21:23.834Z,78.71
2017-03-13T00:21:28.351Z,78.42
2017-03-13T00:21:33.022Z,78.71
2017-03-13T00:21:37.681Z,78.33
2017-03-13T00:21:42.231Z,78.8
2017-03-13T00:21:46.761Z,78.61
2017-03-13T00:21:51.449Z,78.33
2017-03-13T00:21:56.094Z,78.52
2017-03-13T00:22:00.757Z,78.14
2017-03-13T00:22:05.366Z,78.33
2017-03-13T00:22:09.892Z,78.14
2017-03-13T00:22:14.539Z,78.33
2017-03-13T00:22:19.070Z,78.52
2017-03-13T00:22:23.737Z,78.8
2017-03-13T00:22:28.399Z,78.61
2017-03-13T00:22:33.064Z,78.42
2017-03-13T00:22:37.729Z,78.52
2017-03-13T00:22:42.368Z,78.61
2017-03-13T00:22:47.084Z,78.42
2017-03-13T00:22:51.749Z,78.71
2017-03-13T00:22:56.412Z,78.42
2017-03-13T00:23:01.057Z,78.42
2017-03-13T00:23:05.571Z,78.61
2017-03-13T00:23:10.081Z,78.8
2017-03-13T00:23:14.745Z,78.42
2017-03-13T00:23:19.401Z,78.71
2017-03-13T00:23:24.064Z,78.33
2017-03-13T00:23:28.710Z,78.23
2017-03-13T00:23:33.243Z,78.23
2017-03-13T00:23:37.913Z,78.52
2017-03-13T00:23:42.411Z,78.52
2017-03-13T00:23:46.915Z,78.61
2017-03-13T00:23:51.585Z,78.42
2017-03-13T00:23:56.243Z,78.71
2017-03-13T00:24:00.896Z,78.52
2017-03-13T00:24:05.286Z,78.61
2017-03-13T00:24:09.795Z,78.33
2017-03-13T00:24:14.438Z,78.42
2017-03-13T00:24:19.074Z,78.71
2017-03-13T00:24:23.726Z,78.8
2017-03-13T00:24:28.244Z,78.23
2017-03-13T00:24:32.905Z,78.23
2017-03-13T00:24:37.608Z,78.23
2017-03-13T00:24:42.254Z,78.42
2017-03-13T00:24:46.616Z,78.23
2017-03-13T00:24:51.276Z,78.71
2017-03-13T00:24:55.792Z,78.8
2017-03-13T00:25:00.450Z,78.52
2017-03-13T00:25:05.271Z,78.8
2017-03-13T00:25:09.798Z,78.52
2017-03-13T00:25:14.448Z,78.42
2017-03-13T00:25:18.950Z,78.33
2017-03-13T00:25:23.460Z,78.23
2017-03-13T00:25:27.994Z,78.23
2017-03-13T00:25:32.647Z,78.05
2017-03-13T00:25:37.150Z,78.14
2017-03-13T00:25:41.809Z,78.14
2017-03-13T00:25:46.183Z,78.14
2017-03-13T00:25:50.721Z,78.42
2017-03-13T00:25:55.402Z,78.05
2017-03-13T00:26:00.063Z,77.86
2017-03-13T00:26:04.781Z,77.76
2017-03-13T00:26:09.441Z,77.95
2017-03-13T00:26:14.092Z,77.67
2017-03-13T00:26:18.770Z,77.76
2017-03-13T00:26:23.270Z,77.67
2017-03-13T00:26:27.666Z,77.95
2017-03-13T00:26:32.325Z,77.76
2017-03-13T00:26:37.006Z,78.05
2017-03-13T00:26:41.677Z,78.05
2017-03-13T00:26:46.179Z,77.86
2017-03-13T00:26:50.841Z,77.86
2017-03-13T00:26:55.511Z,77.58
2017-03-13T00:27:00.183Z,77.39
2017-03-13T00:27:04.562Z,77.58
2017-03-13T00:27:09.222Z,77.48
2017-03-13T00:27:13.873Z,77.76
2017-03-13T00:27:18.568Z,77.67
2017-03-13T00:27:23.217Z,77.95
2017-03-13T00:27:27.582Z,77.76
2017-03-13T00:27:32.250Z,78.05
2017-03-13T00:27:36.754Z,77.95
2017-03-13T00:27:41.317Z,78.05
2017-03-13T00:27:45.828Z,78.42
2017-03-13T00:27:50.495Z,78.33
2017-03-13T00:27:55.177Z,78.14
2017-03-13T00:27:59.859Z,78.14
2017-03-13T00:28:04.364Z,78.23
2017-03-13T00:28:08.870Z,78.14
2017-03-13T00:28:13.370Z,78.33
2017-03-13T00:28:18.027Z,78.14
2017-03-13T00:28:22.689Z,78.14
2017-03-13T00:28:27.190Z,78.14
2017-03-13T00:28:31.835Z,77.95
2017-03-13T00:28:36.500Z,78.05
2017-03-13T00:28:41.163Z,77.95
2017-03-13T00:28:45.675Z,77.95
2017-03-13T00:28:50.055Z,78.23
2017-03-13T00:28:54.707Z,78.05
2017-03-13T00:28:59.351Z,77.58
2017-03-13T00:29:03.734Z,77.95
2017-03-13T00:29:08.379Z,77.58
2017-03-13T00:29:12.887Z,77.76
2017-03-13T00:29:17.554Z,77.76
2017-03-13T00:29:22.069Z,77.58
2017-03-13T00:29:26.601Z,77.95
2017-03-13T00:29:31.156Z,77.58
2017-03-13T00:29:35.824Z,77.86
2017-03-13T00:29:40.341Z,77.86
2017-03-13T00:29:45.009Z,77.76
2017-03-13T00:29:49.381Z,78.23
2017-03-13T00:29:54.030Z,78.33
2017-03-13T00:29:58.690Z,78.23
2017-03-13T00:30:03.643Z,78.33
2017-03-13T00:30:08.305Z,78.33
2017-03-13T00:30:12.809Z,78.33
2017-03-13T00:30:17.464Z,78.23
2017-03-13T00:30:21.965Z,78.71
2017-03-13T00:30:26.330Z,78.42
2017-03-13T00:30:30.987Z,78.52
2017-03-13T00:30:35.633Z,78.8
2017-03-13T00:30:40.272Z,78.42
2017-03-13T00:30:44.936Z,78.52
2017-03-13T00:30:49.588Z,78.52
2017-03-13T00:30:54.098Z,78.71
2017-03-13T00:30:58.771Z,78.99
2017-03-13T00:31:03.424Z,78.33
2017-03-13T00:31:08.117Z,78.9
2017-03-13T00:31:12.818Z,78.8
2017-03-13T00:31:17.467Z,78.71
2017-03-13T00:31:22.157Z,78.71
2017-03-13T00:31:26.674Z,78.71
2017-03-13T00:31:31.313Z,78.9
2017-03-13T00:31:35.959Z,78.9
2017-03-13T00:31:40.495Z,78.71
2017-03-13T00:31:45.192Z,78.61
2017-03-13T00:31:49.692Z,78.71
2017-03-13T00:31:54.348Z,78.71
2017-03-13T00:31:58.708Z,78.8
2017-03-13T00:32:03.222Z,78.8
2017-03-13T00:32:07.626Z,78.71
2017-03-13T00:32:12.273Z,78.52
2017-03-13T00:32:16.926Z,78.9
2017-03-13T00:32:21.468Z,78.33
2017-03-13T00:32:26.140Z,78.52
2017-03-13T00:32:30.792Z,78.23
2017-03-13T00:32:35.300Z,78.33
2017-03-13T00:32:39.984Z,78.9
2017-03-13T00:32:44.661Z,78.71
2017-03-13T00:32:49.335Z,78.42
2017-03-13T00:32:54.005Z,78.71
2017-03-13T00:32:58.684Z,78.52
2017-03-13T00:33:03.456Z,78.42
2017-03-13T00:33:08.127Z,78.33
2017-03-13T00:33:12.494Z,78.99
2017-03-13T00:33:17.167Z,78.33
2017-03-13T00:33:21.866Z,78.33
2017-03-13T00:33:26.384Z,79.09
2017-03-13T00:33:30.883Z,78.8
2017-03-13T00:33:35.546Z,78.42
2017-03-13T00:33:40.225Z,78.9
2017-03-13T00:33:44.882Z,78.52
2017-03-13T00:33:49.429Z,78.52
2017-03-13T00:33:53.940Z,78.33
2017-03-13T00:33:58.600Z,79.47
2017-03-13T00:34:03.147Z,78.99
2017-03-13T00:34:07.642Z,78.9
2017-03-13T00:34:12.171Z,78.71
2017-03-13T00:34:16.830Z,78.42
2017-03-13T00:34:21.326Z,78.8
2017-03-13T00:34:25.687Z,78.9
2017-03-13T00:34:30.192Z,78.8
2017-03-13T00:34:34.685Z,78.8
2017-03-13T00:34:39.357Z,78.71
2017-03-13T00:34:44.050Z,78.71
2017-03-13T00:34:48.564Z,78.8
2017-03-13T00:34:53.241Z,78.71
2017-03-13T00:34:57.894Z,78.61
2017-03-13T00:35:02.389Z,78.71
2017-03-13T00:35:07.067Z,78.9
2017-03-13T00:35:11.606Z,78.61
2017-03-13T00:35:16.267Z,78.71
2017-03-13T00:35:20.763Z,78.33
2017-03-13T00:35:25.273Z,78.99
2017-03-13T00:35:29.942Z,78.8
2017-03-13T00:35:34.499Z,78.61
2017-03-13T00:35:39.164Z,78.71
2017-03-13T00:35:43.682Z,78.71
2017-03-13T00:35:48.236Z,78.71
2017-03-13T00:35:52.762Z,78.71
2017-03-13T00:35:57.432Z,78.71
2017-03-13T00:36:02.078Z,78.8
2017-03-13T00:36:06.582Z,78.8
2017-03-13T00:36:11.229Z,78.61
2017-03-13T00:36:15.745Z,78.61
2017-03-13T00:36:20.419Z,78.9
2017-03-13T00:36:24.949Z,78.71
2017-03-13T00:36:29.594Z,78.8
2017-03-13T00:36:34.246Z,78.9
2017-03-13T00:36:38.916Z,78.8
2017-03-13T00:36:43.578Z,78.71
2017-03-13T00:36:48.237Z,78.71
2017-03-13T00:36:52.753Z,78.71
2017-03-13T00:36:57.427Z,78.52
2017-03-13T00:37:02.307Z,78.52
2017-03-13T00:37:06.548Z,78.61
2017-03-13T00:37:11.056Z,78.99
2017-03-13T00:37:15.731Z,78.71
2017-03-13T00:37:20.383Z,78.9
2017-03-13T00:37:24.903Z,78.61
2017-03-13T00:37:29.416Z,78.71
2017-03-13T00:37:34.066Z,79.18
2017-03-13T00:37:38.728Z,78.23
2017-03-13T00:37:43.373Z,78.42
2017-03-13T00:37:48.064Z,78.42
2017-03-13T00:37:52.574Z,78.52
2017-03-13T00:37:57.213Z,78.33
2017-03-13T00:38:01.863Z,79.28
2017-03-13T00:38:06.370Z,78.42
2017-03-13T00:38:10.578Z,79.18
2017-03-13T00:38:15.230Z,78.61
2017-03-13T00:38:19.603Z,79.09
2017-03-13T00:38:24.249Z,78.33
2017-03-13T00:38:28.916Z,78.8
2017-03-13T00:38:33.425Z,78.99
2017-03-13T00:38:38.082Z,78.42
2017-03-13T00:38:42.746Z,78.52
2017-03-13T00:38:47.419Z,78.8
2017-03-13T00:38:51.906Z,78.52
2017-03-13T00:38:56.424Z,78.8
2017-03-13T00:39:01.093Z,78.33
2017-03-13T00:39:05.586Z,78.33
2017-03-13T00:39:10.245Z,78.33
2017-03-13T00:39:14.745Z,78.99
2017-03-13T00:39:19.419Z,78.8
2017-03-13T00:39:23.935Z,78.8
2017-03-13T00:39:28.430Z,78.8
2017-03-13T00:39:32.953Z,78.52
2017-03-13T00:39:37.613Z,78.23
2017-03-13T00:39:42.311Z,78.9
2017-03-13T00:39:46.960Z,78.33
2017-03-13T00:39:51.617Z,78.42
2017-03-13T00:39:56.272Z,78.71
2017-03-13T00:40:00.789Z,78.23
2017-03-13T00:40:05.362Z,78.23
2017-03-13T00:40:09.737Z,78.33
2017-03-13T00:40:14.397Z,78.61
2017-03-13T00:40:19.055Z,78.52
2017-03-13T00:40:23.701Z,78.52
2017-03-13T00:40:28.211Z,78.71
2017-03-13T00:40:32.722Z,78.33
2017-03-13T00:40:37.083Z,78.42
2017-03-13T00:40:41.759Z,78.33
2017-03-13T00:40:46.423Z,78.61
2017-03-13T00:40:51.093Z,79.28
2017-03-13T00:40:55.592Z,79.18
2017-03-13T00:41:00.256Z,78.61
2017-03-13T00:41:04.913Z,78.99
2017-03-13T00:41:09.580Z,79.09
2017-03-13T00:41:14.099Z,78.42
2017-03-13T00:41:18.613Z,78.52
2017-03-13T00:41:23.157Z,78.42
2017-03-13T00:41:27.846Z,78.33
2017-03-13T00:41:32.511Z,78.42
2017-03-13T00:41:37.177Z,78.61
2017-03-13T00:41:41.843Z,78.61
2017-03-13T00:41:46.502Z,78.42
2017-03-13T00:41:51.149Z,78.61
2017-03-13T00:41:55.678Z,78.71
2017-03-13T00:42:00.346Z,78.71
2017-03-13T00:42:04.851Z,78.52
2017-03-13T00:42:08.928Z,78.8
2017-03-13T00:42:13.521Z,78.52
2017-03-13T00:42:18.184Z,78.33
2017-03-13T00:42:22.839Z,78.23
2017-03-13T00:42:27.336Z,78.23
2017-03-13T00:42:31.855Z,78.33
2017-03-13T00:42:36.362Z,78.14
2017-03-13T00:42:41.016Z,78.33
2017-03-13T00:42:45.667Z,78.33
2017-03-13T00:42:50.328Z,78.23
2017-03-13T00:42:55.000Z,78.9
2017-03-13T00:42:59.652Z,78.33
2017-03-13T00:43:04.177Z,78.42
2017-03-13T00:43:08.731Z,78.23
2017-03-13T00:43:13.105Z,78.71
2017-03-13T00:43:17.752Z,78.71
2017-03-13T00:43:22.438Z,78.42
2017-03-13T00:43:27.085Z,78.52
2017-03-13T00:43:31.743Z,78.8
2017-03-13T00:43:36.276Z,78.42
2017-03-13T00:43:40.922Z,78.42
2017-03-13T00:43:45.432Z,78.33
2017-03-13T00:43:50.081Z,78.33
2017-03-13T00:43:54.727Z,78.42
2017-03-13T00:43:59.400Z,78.42
2017-03-13T00:44:03.964Z,78.52
2017-03-13T00:44:08.197Z,79.09
2017-03-13T00:44:12.716Z,78.99
2017-03-13T00:44:17.363Z,78.61
2017-03-13T00:44:22.007Z,78.33
2017-03-13T00:44:26.642Z,78.8
2017-03-13T00:44:31.164Z,78.71
2017-03-13T00:44:35.831Z,78.61
2017-03-13T00:44:40.344Z,78.71
2017-03-13T00:44:45.013Z,78.71
2017-03-13T00:44:49.677Z,78.9
2017-03-13T00:44:54.353Z,78.52
2017-03-13T00:44:59.017Z,78.61
2017-03-13T00:45:03.530Z,78.71
2017-03-13T00:45:08.082Z,78.71
2017-03-13T00:45:12.472Z,78.8
2017-03-13T00:45:17.128Z,78.71
2017-03-13T00:45:21.801Z,78.71
2017-03-13T00:45:26.455Z,78.8
2017-03-13T00:45:30.970Z,78.8
2017-03-13T00:45:35.621Z,78.9
2017-03-13T00:45:40.282Z,78.8
2017-03-13T00:45:44.945Z,78.71
2017-03-13T00:45:49.619Z,78.61
2017-03-13T00:45:54.141Z,78.61
2017-03-13T00:45:58.794Z,78.71
2017-03-13T00:46:03.452Z,78.9
2017-03-13T00:46:07.679Z,78.9
2017-03-13T00:46:12.200Z,78.8
2017-03-13T00:46:16.871Z,78.9
2017-03-13T00:46:21.418Z,78.9
2017-03-13T00:46:25.937Z,78.33
2017-03-13T00:46:30.439Z,78.33
2017-03-13T00:46:35.080Z,78.42
2017-03-13T00:46:39.453Z,78.33
2017-03-13T00:46:44.112Z,78.52
2017-03-13T00:46:48.798Z,78.61
2017-03-13T00:46:53.336Z,79.09
2017-03-13T00:46:57.983Z,78.8
2017-03-13T00:47:02.666Z,78.52
2017-03-13T00:47:07.302Z,78.99
2017-03-13T00:47:11.658Z,78.8
2017-03-13T00:47:16.326Z,78.61
2017-03-13T00:47:20.968Z,78.52
2017-03-13T00:47:25.487Z,78.42
2017-03-13T00:47:30.149Z,78.71
2017-03-13T00:47:34.773Z,78.33
2017-03-13T00:47:39.436Z,78.61
2017-03-13T00:47:43.937Z,78.61
2017-03-13T00:47:48.454Z,78.61
2017-03-13T00:47:53.107Z,78.52
2017-03-13T00:47:57.737Z,78.61
2017-03-13T00:48:02.395Z,78.52
2017-03-13T00:48:06.937Z,78.23
2017-03-13T00:48:11.614Z,78.61
2017-03-13T00:48:16.272Z,78.52
2017-03-13T00:48:20.932Z,78.23
2017-03-13T00:48:25.596Z,78.33
2017-03-13T00:48:30.139Z,78.33
2017-03-13T00:48:34.810Z,79.09
2017-03-13T00:48:39.461Z,78.33
2017-03-13T00:48:44.129Z,79.09
2017-03-13T00:48:48.651Z,78.71
2017-03-13T00:48:53.318Z,79.28
2017-03-13T00:48:57.969Z,78.99
2017-03-13T00:49:02.653Z,78.71
2017-03-13T00:49:07.156Z,78.52
2017-03-13T00:49:11.700Z,78.9
2017-03-13T00:49:16.337Z,78.61
2017-03-13T00:49:21.021Z,78.42
2017-03-13T00:49:25.535Z,78.61
2017-03-13T00:49:30.028Z,78.71
2017-03-13T00:49:34.536Z,78.42
2017-03-13T00:49:39.045Z,78.42
2017-03-13T00:49:43.743Z,78.61
2017-03-13T00:49:48.259Z,78.61
2017-03-13T00:49:52.917Z,78.71
2017-03-13T00:49:57.463Z,78.71
2017-03-13T00:50:02.348Z,78.52
2017-03-13T00:50:06.693Z,78.42
2017-03-13T00:50:11.213Z,78.52
2017-03-13T00:50:15.861Z,78.9
2017-03-13T00:50:20.507Z,78.9
2017-03-13T00:50:25.058Z,78.52
2017-03-13T00:50:29.423Z,78.52
2017-03-13T00:50:33.921Z,78.42
2017-03-13T00:50:38.571Z,78.33
2017-03-13T00:50:43.225Z,78.23
2017-03-13T00:50:47.733Z,78.33
2017-03-13T00:50:52.427Z,78.33
2017-03-13T00:50:57.076Z,78.42
2017-03-13T00:51:01.931Z,78.14
2017-03-13T00:51:06.635Z,78.14
2017-03-13T00:51:11.160Z,78.61
2017-03-13T00:51:15.679Z,78.23
2017-03-13T00:51:20.335Z,78.42
2017-03-13T00:51:25.015Z,78.05
2017-03-13T00:51:29.517Z,78.14
2017-03-13T00:51:34.042Z,78.14
2017-03-13T00:51:38.546Z,78.05
2017-03-13T00:51:43.256Z,78.14
2017-03-13T00:51:47.911Z,78.14
2017-03-13T00:51:52.412Z,78.42
2017-03-13T00:51:57.073Z,78.33
2017-03-13T00:52:01.755Z,78.05
2017-03-13T00:52:06.273Z,78.33
2017-03-13T00:52:10.797Z,77.86
2017-03-13T00:52:15.453Z,77.95
2017-03-13T00:52:20.121Z,77.95
2017-03-13T00:52:24.775Z,77.95
2017-03-13T00:52:29.289Z,78.23
2017-03-13T00:52:33.972Z,77.76
2017-03-13T00:52:38.479Z,77.95
2017-03-13T00:52:42.985Z,78.05
2017-03-13T00:52:47.530Z,78.05
2017-03-13T00:52:52.185Z,78.42
2017-03-13T00:52:56.710Z,78.05
2017-03-13T00:53:01.358Z,78.14
2017-03-13T00:53:05.862Z,78.14
2017-03-13T00:53:10.251Z,78.23
2017-03-13T00:53:14.940Z,78.42
2017-03-13T00:53:19.615Z,78.14
2017-03-13T00:53:24.131Z,78.42
2017-03-13T00:53:28.786Z,78.42
2017-03-13T00:53:33.313Z,78.23
2017-03-13T00:53:37.973Z,78.9
2017-03-13T00:53:42.623Z,78.33
2017-03-13T00:53:47.144Z,78.8
2017-03-13T00:53:51.794Z,78.33
2017-03-13T00:53:56.472Z,78.52
2017-03-13T00:54:01.134Z,78.71
2017-03-13T00:54:05.836Z,78.71
2017-03-13T00:54:10.207Z,78.71
2017-03-13T00:54:14.564Z,78.71
2017-03-13T00:54:19.230Z,78.33
2017-03-13T00:54:23.737Z,78.61
2017-03-13T00:54:28.261Z,78.8
2017-03-13T00:54:32.937Z,78.9
2017-03-13T00:54:37.616Z,78.33
2017-03-13T00:54:42.261Z,78.33
2017-03-13T00:54:46.923Z,78.61
2017-03-13T00:54:51.439Z,78.52
2017-03-13T00:54:56.117Z,79.18
2017-03-13T00:55:00.813Z,78.9
2017-03-13T00:55:05.312Z,78.99
2017-03-13T00:55:09.996Z,78.9
2017-03-13T00:55:14.532Z,78.9
2017-03-13T00:55:19.173Z,78.9
2017-03-13T00:55:23.687Z,78.9
2017-03-13T00:55:28.353Z,78.61
2017-03-13T00:55:32.922Z,78.61
2017-03-13T00:55:37.586Z,78.9
2017-03-13T00:55:42.089Z,78.61
2017-03-13T00:55:46.739Z,78.8
2017-03-13T00:55:51.432Z,78.8
2017-03-13T00:55:56.099Z,78.71
2017-03-13T00:56:00.764Z,78.8
2017-03-13T00:56:05.266Z,78.71
2017-03-13T00:56:09.624Z,78.61
2017-03-13T00:56:14.145Z,78.71
2017-03-13T00:56:18.783Z,79.09
2017-03-13T00:56:23.423Z,79.28
2017-03-13T00:56:27.943Z,78.99
2017-03-13T00:56:32.304Z,78.99
2017-03-13T00:56:36.950Z,79.66
2017-03-13T00:56:41.590Z,79.47
2017-03-13T00:56:45.983Z,79.28
2017-03-13T00:56:50.635Z,79.37
2017-03-13T00:56:55.293Z,79.47
2017-03-13T00:56:59.940Z,79.47
2017-03-13T00:57:04.724Z,79.56
2017-03-13T00:57:09.366Z,79.56
2017-03-13T00:57:14.019Z,79.66
2017-03-13T00:57:18.546Z,79.66
2017-03-13T00:57:23.224Z,79.56
2017-03-13T00:57:27.887Z,79.56
2017-03-13T00:57:32.522Z,79.47
2017-03-13T00:57:37.210Z,79.28
2017-03-13T00:57:41.716Z,79.56
2017-03-13T00:57:46.094Z,79.56
2017-03-13T00:57:50.767Z,79.56
2017-03-13T00:57:55.339Z,79.47
2017-03-13T00:57:59.989Z,79.37
2017-03-13T00:58:04.349Z,79.47
2017-03-13T00:58:08.560Z,79.66
2017-03-13T00:58:13.228Z,79.18
2017-03-13T00:58:17.901Z,78.99
2017-03-13T00:58:22.550Z,79.28
2017-03-13T00:58:27.079Z,79.28
2017-03-13T00:58:31.590Z,79.18
2017-03-13T00:58:36.268Z,79.47
2017-03-13T00:58:40.957Z,79.47
2017-03-13T00:58:45.477Z,79.47
2017-03-13T00:58:50.145Z,79.28
2017-03-13T00:58:54.792Z,78.99
2017-03-13T00:58:59.445Z,78.99
2017-03-13T00:59:04.203Z,79.66
2017-03-13T00:59:08.882Z,79.18
2017-03-13T00:59:13.548Z,79.09
2017-03-13T00:59:18.235Z,79.28
2017-03-13T00:59:22.923Z,79.18